• Join FlightAware (Why Join?)
  • Login
  • US Flag 
 
07:31PM EST


 

Airport Tracker/Info


-or-


 

Live Flight TrackerFlight Track Log ✈ JBU808 ✈ 22-Mar-2014 ✈ TIST / STT - TJSJ / SJU

Flight Track Log - Related Links

Times and Time Zones

All times are in EDT time to prevent confusion due to time zone crossing. See the JBU808 flight status page for this flight to view local times or setup timezone preferences in your user account.

Time Position Orientation Groundspeed Altitude Reporting Facility
EDT Latitude Longitude Course Direction KTS MPH feet Rate Location/Type
01:45PM 18.3333 -64.9500 281° West 140 161 1,400  Level San Juan Center
01:46PM 18.2833 -64.9500 180° South 210 242 3,000 2,760 Climbing San Juan Center
01:47PM 18.2500 -65.0167 242° Southwest 280 322 7,000 2,460 Climbing San Juan Center
01:48PM 18.2851 -65.2428 281° West  Level FlightAware Approximate
01:48PM 18.2167 -65.1000 247° West 270 311 8,000  Level San Juan Center
01:49PM 18.2982 -65.3125 281° West  Level FlightAware Approximate
01:49PM 18.1833 -65.1667 242° Southwest 280 322 8,000  Level San Juan Center
01:50PM 18.3113 -65.3822 281° West  Level FlightAware Approximate
01:50PM 18.1833 -65.2333 270° West 280 322 8,000  Level San Juan Center
01:51PM 18.2167 -65.3167 293° West 280 322 8,000  Level San Juan Center
01:52PM 18.2833 -65.3667 325° Northwest 290 334 8,000 -60 Level San Juan Center
01:53PM 18.3333 -65.4333 308° West 280 322 7,900 -60 Descending San Juan Center
01:54PM 18.3333 -65.5000 270° West 240 276 7,900  Level San Juan Center
01:55PM 18.3500 -65.5667 285° West 230 265 7,900 -480 Level San Juan Center
01:56PM 18.3667 -65.6333 285° West 240 276 7,000 -780 Descending San Juan Center
01:57PM 18.3667 -65.7000 270° West 230 265 6,400 -540 Descending San Juan Center
01:58PM 18.3667 -65.7833 270° West 230 265 6,000 -240 Descending San Juan Center
01:59PM 18.3667 -65.8500 270° West 220 253 6,000  Level San Juan Center
02:00PM 18.3667 -65.9167 270° West 230 265 6,000  Level San Juan Center
02:01PM 18.3667 -65.9833 270° West 210 242 6,000 -540 Level San Juan Center
02:02PM 18.3667 -66.0333 270° West 210 242 5,000 -1,260 Descending San Juan Center
02:03PM 18.3667 -66.1000 270° West 200 230 3,500 -1,260 Descending San Juan Center
02:04PM 18.3833 -66.1333 298° West 200 230 2,500 -720 Descending San Juan Center
02:05PM 18.4333 -66.1000 32° Northeast 190 219 2,100 -780 Descending San Juan Center
02:06PM 18.4333 -66.0667 90° East 140 161 1,000 -900 Descending San Juan Center
02:07PM 18.4333 -66.0333 90° East 130 150 400 -600 Descending San Juan Center